sensor_id;sensor_type;location;lat;lon;timestamp;pressure;altitude;pressure_sealevel;temperature;humidity
22755;BME280;11544;42.020;23.094;2022-10-17T00:01:13;98521.38;;;7.92;97.73
22755;BME280;11544;42.020;23.094;2022-10-17T00:03:39;98522.19;;;7.96;99.27
22755;BME280;11544;42.020;23.094;2022-10-17T00:06:13;98520.13;;;8.67;96.93
22755;BME280;11544;42.020;23.094;2022-10-17T00:08:41;98516.69;;;8.63;94.97
22755;BME280;11544;42.020;23.094;2022-10-17T00:11:19;98505.28;;;8.78;94.54
22755;BME280;11544;42.020;23.094;2022-10-17T00:13:47;98512.50;;;8.33;94.42
22755;BME280;11544;42.020;23.094;2022-10-17T00:16:14;98519.44;;;8.34;96.04
22755;BME280;11544;42.020;23.094;2022-10-17T00:18:40;98523.88;;;8.12;96.55
22755;BME280;11544;42.020;23.094;2022-10-17T00:21:14;98518.66;;;8.12;97.17
22755;BME280;11544;42.020;23.094;2022-10-17T00:23:39;98515.09;;;8.44;96.78
22755;BME280;11544;42.020;23.094;2022-10-17T00:26:05;98523.97;;;7.86;98.13
22755;BME280;11544;42.020;23.094;2022-10-17T00:28:31;98524.72;;;8.16;97.54
22755;BME280;11544;42.020;23.094;2022-10-17T00:30:59;98517.00;;;7.96;97.94
22755;BME280;11544;42.020;23.094;2022-10-17T00:33:26;98528.22;;;8.07;98.53
22755;BME280;11544;42.020;23.094;2022-10-17T00:36:04;98524.88;;;7.82;98.99
22755;BME280;11544;42.020;23.094;2022-10-17T00:38:31;98522.25;;;7.83;99.67
22755;BME280;11544;42.020;23.094;2022-10-17T00:40:57;98534.34;;;7.94;98.01
22755;BME280;11544;42.020;23.094;2022-10-17T00:43:23;98528.22;;;8.07;98.52
22755;BME280;11544;42.020;23.094;2022-10-17T00:45:48;98530.09;;;7.67;99.29
22755;BME280;11544;42.020;23.094;2022-10-17T00:48:14;98533.59;;;7.52;99.98
22755;BME280;11544;42.020;23.094;2022-10-17T00:50:43;98532.69;;;7.65;100.00
22755;BME280;11544;42.020;23.094;2022-10-17T00:53:10;98527.41;;;7.93;100.00
22755;BME280;11544;42.020;23.094;2022-10-17T00:55:50;98524.88;;;7.77;100.00
22755;BME280;11544;42.020;23.094;2022-10-17T00:58:18;98524.03;;;7.75;100.00
22755;BME280;11544;42.020;23.094;2022-10-17T01:00:46;98526.69;;;7.46;100.00
22755;BME280;11544;42.020;23.094;2022-10-17T01:03:14;98531.00;;;7.46;100.00
22755;BME280;11544;42.020;23.094;2022-10-17T01:05:40;98525.66;;;8.01;100.00
22755;BME280;11544;42.020;23.094;2022-10-17T01:08:07;98525.66;;;8.01;100.00
22755;BME280;11544;42.020;23.094;2022-10-17T01:10:43;98527.44;;;7.88;99.31
22755;BME280;11544;42.020;23.094;2022-10-17T01:24:36;98519.72;;;7.67;100.00
22755;BME280;11544;42.020;23.094;2022-10-17T01:33:29;98520.56;;;7.67;100.00
22755;BME280;11544;42.020;23.094;2022-10-17T01:42:00;98526.69;;;7.52;100.00
22755;BME280;11544;42.020;23.094;2022-10-17T01:44:35;98529.28;;;7.58;100.00
22755;BME280;11544;42.020;23.094;2022-10-17T01:47:09;98529.25;;;7.55;100.00
22755;BME280;11544;42.020;23.094;2022-10-17T01:49:42;98532.72;;;7.59;100.00
22755;BME280;11544;42.020;23.094;2022-10-17T01:52:24;98531.06;;;7.26;100.00
22755;BME280;11544;42.020;23.094;2022-10-17T01:54:59;98536.22;;;7.29;100.00
22755;BME280;11544;42.020;23.094;2022-10-17T01:57:31;98538.81;;;7.22;100.00
22755;BME280;11544;42.020;23.094;2022-10-17T02:00:03;98545.75;;;6.91;100.00
22755;BME280;11544;42.020;23.094;2022-10-17T02:02:39;98544.03;;;6.90;100.00
22755;BME280;11544;42.020;23.094;2022-10-17T02:05:06;98542.31;;;6.92;100.00
22755;BME280;11544;42.020;23.094;2022-10-17T02:07:32;98547.47;;;7.25;100.00
22755;BME280;11544;42.020;23.094;2022-10-17T02:09:58;98548.31;;;7.47;100.00
22755;BME280;11544;42.020;23.094;2022-10-17T02:20:56;98551.78;;;7.29;100.00
22755;BME280;11544;42.020;23.094;2022-10-17T02:23:39;98555.22;;;7.37;100.00
22755;BME280;11544;42.020;23.094;2022-10-17T02:26:11;98556.09;;;7.36;100.00
22755;BME280;11544;42.020;23.094;2022-10-17T02:29:17;98564.75;;;6.86;100.00
22755;BME280;11544;42.020;23.094;2022-10-17T02:32:03;98573.38;;;6.69;100.00
22755;BME280;11544;42.020;23.094;2022-10-17T02:34:35;98576.84;;;6.74;100.00
22755;BME280;11544;42.020;23.094;2022-10-17T02:37:04;98569.97;;;7.12;100.00
22755;BME280;11544;42.020;23.094;2022-10-17T02:39:33;98577.72;;;6.96;100.00
22755;BME280;11544;42.020;23.094;2022-10-17T02:42:02;98574.25;;;6.99;100.00
22755;BME280;11544;42.020;23.094;2022-10-17T02:44:31;98574.28;;;6.88;100.00
22755;BME280;11544;42.020;23.094;2022-10-17T02:47:12;98588.09;;;6.86;100.00
22755;BME280;11544;42.020;23.094;2022-10-17T02:49:45;98586.38;;;7.09;100.00
22755;BME280;11544;42.020;23.094;2022-10-17T02:52:37;98597.59;;;6.76;100.00
22755;BME280;11544;42.020;23.094;2022-10-17T02:57:53;98589.78;;;6.59;100.00
22755;BME280;11544;42.020;23.094;2022-10-17T03:00:21;98601.84;;;6.55;100.00
22755;BME280;11544;42.020;23.094;2022-10-17T03:02:50;98600.09;;;6.45;100.00
22755;BME280;11544;42.020;23.094;2022-10-17T03:05:22;98599.22;;;6.46;100.00
22755;BME280;11544;42.020;23.094;2022-10-17T03:07:48;98599.31;;;6.83;100.00
22755;BME280;11544;42.020;23.094;2022-10-17T03:10:14;98600.16;;;6.74;100.00
22755;BME280;11544;42.020;23.094;2022-10-17T03:12:40;98601.88;;;6.60;100.00
22755;BME280;11544;42.020;23.094;2022-10-17T03:15:08;98604.34;;;6.29;100.00
22755;BME280;11544;42.020;23.094;2022-10-17T03:17:35;98609.56;;;6.37;100.00
22755;BME280;11544;42.020;23.094;2022-10-17T03:20:01;98612.19;;;6.49;100.00
22755;BME280;11544;42.020;23.094;2022-10-17T03:22:29;98603.59;;;6.55;100.00
22755;BME280;11544;42.020;23.094;2022-10-17T03:24:55;98604.44;;;6.60;100.00
22755;BME280;11544;42.020;23.094;2022-10-17T03:27:21;98604.44;;;6.48;100.00
22755;BME280;11544;42.020;23.094;2022-10-17T03:29:47;98607.03;;;6.63;100.00
22755;BME280;11544;42.020;23.094;2022-10-17T03:32:14;98600.91;;;6.29;100.00
22755;BME280;11544;42.020;23.094;2022-10-17T03:34:40;98613.72;;;6.01;100.00
22755;BME280;11544;42.020;23.094;2022-10-17T03:37:06;98612.84;;;6.02;100.00
22755;BME280;11544;42.020;23.094;2022-10-17T03:39:34;98616.22;;;5.92;100.00
22755;BME280;11544;42.020;23.094;2022-10-17T03:41:59;98613.53;;;5.75;100.00
22755;BME280;11544;42.020;23.094;2022-10-17T03:44:25;98621.53;;;6.07;100.00
22755;BME280;11544;42.020;23.094;2022-10-17T03:46:51;98630.00;;;5.89;100.00
22755;BME280;11544;42.020;23.094;2022-10-17T03:49:16;98628.44;;;6.10;100.00
22755;BME280;11544;42.020;23.094;2022-10-17T03:51:43;98627.44;;;5.89;100.00
22755;BME280;11544;42.020;23.094;2022-10-17T03:54:13;98631.00;;;6.08;100.00
22755;BME280;11544;42.020;23.094;2022-10-17T03:56:38;98629.25;;;5.98;100.00
22755;BME280;11544;42.020;23.094;2022-10-17T03:59:13;98629.91;;;5.72;100.00
22755;BME280;11544;42.020;23.094;2022-10-17T04:01:41;98637.63;;;5.66;100.00
22755;BME280;11544;42.020;23.094;2022-10-17T04:04:07;98637.66;;;5.71;100.00
22755;BME280;11544;42.020;23.094;2022-10-17T04:06:35;98635.81;;;5.55;100.00
22755;BME280;11544;42.020;23.094;2022-10-17T04:09:02;98640.34;;;5.88;100.00
22755;BME280;11544;42.020;23.094;2022-10-17T04:11:39;98634.25;;;5.78;100.00
22755;BME280;11544;42.020;23.094;2022-10-17T04:14:06;98638.75;;;6.04;100.00
22755;BME280;11544;42.020;23.094;2022-10-17T04:16:32;98639.38;;;5.67;100.00
22755;BME280;11544;42.020;23.094;2022-10-17T04:19:01;98643.09;;;6.06;100.00
22755;BME280;11544;42.020;23.094;2022-10-17T04:21:33;98654.41;;;6.25;100.00
22755;BME280;11544;42.020;23.094;2022-10-17T04:24:04;98655.75;;;5.66;100.00
22755;BME280;11544;42.020;23.094;2022-10-17T04:26:49;98649.81;;;5.81;100.00
22755;BME280;11544;42.020;23.094;2022-10-17T04:29:17;98652.63;;;6.15;100.00
22755;BME280;11544;42.020;23.094;2022-10-17T04:31:44;98656.44;;;5.44;100.00
22755;BME280;11544;42.020;23.094;2022-10-17T04:34:20;98652.38;;;5.78;100.00
22755;BME280;11544;42.020;23.094;2022-10-17T04:36:46;98651.50;;;5.78;100.00
22755;BME280;11544;42.020;23.094;2022-10-17T04:39:13;98653.84;;;5.45;100.00
22755;BME280;11544;42.020;23.094;2022-10-17T04:41:39;98661.00;;;5.74;100.00
22755;BME280;11544;42.020;23.094;2022-10-17T04:44:05;98658.63;;;6.05;100.00
22755;BME280;11544;42.020;23.094;2022-10-17T04:46:35;98658.63;;;6.06;100.00
22755;BME280;11544;42.020;23.094;2022-10-17T04:49:01;98663.84;;;6.12;100.00
22755;BME280;11544;42.020;23.094;2022-10-17T04:51:27;98662.59;;;5.58;100.00
22755;BME280;11544;42.020;23.094;2022-10-17T04:54:15;98662.78;;;5.90;100.00
22755;BME280;11544;42.020;23.094;2022-10-17T04:56:43;98666.38;;;6.00;100.00
22755;BME280;11544;42.020;23.094;2022-10-17T04:59:09;98661.28;;;6.20;100.00
22755;BME280;11544;42.020;23.094;2022-10-17T05:01:38;98662.84;;;5.93;100.00
22755;BME280;11544;42.020;23.094;2022-10-17T05:04:05;98660.34;;;6.03;100.00
22755;BME280;11544;42.020;23.094;2022-10-17T05:06:31;98663.66;;;5.88;100.00
22755;BME280;11544;42.020;23.094;2022-10-17T05:09:24;98675.53;;;5.61;100.00
22755;BME280;11544;42.020;23.094;2022-10-17T05:11:51;98685.78;;;5.46;100.00
22755;BME280;11544;42.020;23.094;2022-10-17T05:14:17;98692.53;;;5.33;100.00
22755;BME280;11544;42.020;23.094;2022-10-17T05:16:43;98689.53;;;5.89;100.00
22755;BME280;11544;42.020;23.094;2022-10-17T05:19:10;98687.41;;;6.66;100.00
22755;BME280;11544;42.020;23.094;2022-10-17T05:21:42;98702.25;;;7.26;100.00
22755;BME280;11544;42.020;23.094;2022-10-17T05:24:09;98694.88;;;6.11;100.00
22755;BME280;11544;42.020;23.094;2022-10-17T05:26:37;98697.25;;;5.82;100.00
22755;BME280;11544;42.020;23.094;2022-10-17T05:29:04;98708.31;;;7.43;100.00
22755;BME280;11544;42.020;23.094;2022-10-17T05:31:33;98697.09;;;7.44;100.00
22755;BME280;11544;42.020;23.094;2022-10-17T05:34:00;98702.03;;;8.88;100.00
22755;BME280;11544;42.020;23.094;2022-10-17T05:36:26;98686.50;;;8.68;100.00
22755;BME280;11544;42.020;23.094;2022-10-17T05:38:53;98676.34;;;7.61;100.00
22755;BME280;11544;42.020;23.094;2022-10-17T05:41:19;98669.59;;;10.37;100.00
22755;BME280;11544;42.020;23.094;2022-10-17T05:43:45;98678.78;;;8.48;95.69
22755;BME280;11544;42.020;23.094;2022-10-17T05:46:16;98669.13;;;9.94;100.00
22755;BME280;11544;42.020;23.094;2022-10-17T05:48:42;98677.16;;;9.74;91.82
22755;BME280;11544;42.020;23.094;2022-10-17T05:51:08;98679.72;;;9.77;88.52
22755;BME280;11544;42.020;23.094;2022-10-17T05:53:37;98675.53;;;11.15;84.79
22755;BME280;11544;42.020;23.094;2022-10-17T05:56:11;98678.75;;;10.69;80.31
22755;BME280;11544;42.020;23.094;2022-10-17T05:58:41;98677.97;;;10.66;82.17
22755;BME280;11544;42.020;23.094;2022-10-17T06:01:19;98675.31;;;11.31;79.57
22755;BME280;11544;42.020;23.094;2022-10-17T06:03:45;98692.81;;;9.68;81.22
22755;BME280;11544;42.020;23.094;2022-10-17T06:06:12;98693.22;;;10.17;80.54
22755;BME280;11544;42.020;23.094;2022-10-17T06:08:42;98679.00;;;11.73;77.49
22755;BME280;11544;42.020;23.094;2022-10-17T06:11:12;98682.50;;;11.71;72.27
22755;BME280;11544;42.020;23.094;2022-10-17T06:13:38;98692.41;;;11.50;72.75
22755;BME280;11544;42.020;23.094;2022-10-17T06:16:10;98689.94;;;9.99;73.02
22755;BME280;11544;42.020;23.094;2022-10-17T06:18:37;98698.22;;;9.42;76.36
22755;BME280;11544;42.020;23.094;2022-10-17T06:21:05;98705.59;;;10.79;82.76
22755;BME280;11544;42.020;23.094;2022-10-17T06:23:32;98703.09;;;10.71;78.75
22755;BME280;11544;42.020;23.094;2022-10-17T06:26:08;98698.97;;;10.50;79.32
22755;BME280;11544;42.020;23.094;2022-10-17T06:28:35;98702.50;;;11.16;73.94
22755;BME280;11544;42.020;23.094;2022-10-17T06:31:10;98705.50;;;11.49;72.60
22755;BME280;11544;42.020;23.094;2022-10-17T06:33:36;98706.59;;;11.34;74.38
22755;BME280;11544;42.020;23.094;2022-10-17T06:36:03;98697.47;;;12.60;72.09
22755;BME280;11544;42.020;23.094;2022-10-17T06:38:31;98710.72;;;12.53;70.09
22755;BME280;11544;42.020;23.094;2022-10-17T06:41:10;98714.56;;;11.25;72.28
22755;BME280;11544;42.020;23.094;2022-10-17T06:43:38;98709.88;;;12.50;70.26
22755;BME280;11544;42.020;23.094;2022-10-17T06:46:23;98706.91;;;12.69;66.67
22755;BME280;11544;42.020;23.094;2022-10-17T06:49:05;98695.78;;;13.42;67.10
22755;BME280;11544;42.020;23.094;2022-10-17T06:51:41;98703.47;;;13.07;64.15
22755;BME280;11544;42.020;23.094;2022-10-17T06:54:10;98692.47;;;13.32;64.11
22755;BME280;11544;42.020;23.094;2022-10-17T06:57:04;98694.38;;;12.40;67.44
22755;BME280;11544;42.020;23.094;2022-10-17T06:59:49;98695.44;;;13.15;63.36
22755;BME280;11544;42.020;23.094;2022-10-17T07:02:19;98686.31;;;14.39;62.70
22755;BME280;11544;42.020;23.094;2022-10-17T07:04:45;98697.31;;;14.52;60.16
22755;BME280;11544;42.020;23.094;2022-10-17T07:07:11;98695.44;;;12.75;61.41
22755;BME280;11544;42.020;23.094;2022-10-17T07:09:39;98699.81;;;12.74;64.95
22755;BME280;11544;42.020;23.094;2022-10-17T07:12:06;98684.91;;;14.60;59.99
22755;BME280;11544;42.020;23.094;2022-10-17T07:14:34;98686.63;;;14.27;61.00
22755;BME280;11544;42.020;23.094;2022-10-17T07:17:00;98693.59;;;13.93;59.02
22755;BME280;11544;42.020;23.094;2022-10-17T07:19:29;98699.88;;;13.88;63.12
22755;BME280;11544;42.020;23.094;2022-10-17T07:21:55;98693.28;;;14.40;59.28
22755;BME280;11544;42.020;23.094;2022-10-17T07:24:21;98695.81;;;15.06;58.48
22755;BME280;11544;42.020;23.094;2022-10-17T07:27:15;98701.00;;;14.46;59.71
22755;BME280;11544;42.020;23.094;2022-10-17T07:29:41;98692.84;;;14.57;58.78
22755;BME280;11544;42.020;23.094;2022-10-17T07:32:10;98698.59;;;14.37;58.28
22755;BME280;11544;42.020;23.094;2022-10-17T07:34:36;98697.06;;;14.30;59.58
22755;BME280;11544;42.020;23.094;2022-10-17T07:37:02;98693.22;;;14.10;60.19
22755;BME280;11544;42.020;23.094;2022-10-17T07:39:28;98690.63;;;14.73;59.39
22755;BME280;11544;42.020;23.094;2022-10-17T07:41:54;98695.25;;;13.23;60.71
22755;BME280;11544;42.020;23.094;2022-10-17T07:44:21;98681.53;;;14.53;60.23
22755;BME280;11544;42.020;23.094;2022-10-17T07:46:49;98677.75;;;14.65;59.23
22755;BME280;11544;42.020;23.094;2022-10-17T07:49:16;98676.34;;;14.83;57.98
22755;BME280;11544;42.020;23.094;2022-10-17T07:51:42;98679.22;;;14.10;57.32
22755;BME280;11544;42.020;23.094;2022-10-17T07:54:08;98680.28;;;13.31;59.94
22755;BME280;11544;42.020;23.094;2022-10-17T07:56:33;98687.03;;;13.01;60.79
22755;BME280;11544;42.020;23.094;2022-10-17T07:58:59;98683.84;;;12.88;64.99
22755;BME280;11544;42.020;23.094;2022-10-17T08:01:25;98673.69;;;14.21;59.72
22755;BME280;11544;42.020;23.094;2022-10-17T08:03:52;98667.66;;;14.17;58.35
22755;BME280;11544;42.020;23.094;2022-10-17T08:06:18;98667.03;;;14.07;59.48
22755;BME280;11544;42.020;23.094;2022-10-17T08:08:43;98662.72;;;14.06;60.23
22755;BME280;11544;42.020;23.094;2022-10-17T08:11:11;98664.03;;;13.88;60.19
22755;BME280;11544;42.020;23.094;2022-10-17T08:13:37;98667.56;;;13.12;61.65
22755;BME280;11544;42.020;23.094;2022-10-17T08:16:06;98660.38;;;14.59;59.59
22755;BME280;11544;42.020;23.094;2022-10-17T08:18:33;98656.97;;;14.87;58.71
22755;BME280;11544;42.020;23.094;2022-10-17T08:21:00;98654.66;;;15.61;57.26
22755;BME280;11544;42.020;23.094;2022-10-17T08:23:27;98650.19;;;14.49;58.07
22755;BME280;11544;42.020;23.094;2022-10-17T08:25:52;98653.50;;;15.43;57.62
22755;BME280;11544;42.020;23.094;2022-10-17T08:28:18;98645.31;;;15.52;56.68
22755;BME280;11544;42.020;23.094;2022-10-17T08:30:44;98647.66;;;15.61;56.73
22755;BME280;11544;42.020;23.094;2022-10-17T08:33:10;98650.84;;;14.88;56.20
22755;BME280;11544;42.020;23.094;2022-10-17T08:35:35;98650.91;;;14.85;57.24
22755;BME280;11544;42.020;23.094;2022-10-17T08:38:01;98649.53;;;15.01;57.19
22755;BME280;11544;42.020;23.094;2022-10-17T08:40:29;98649.56;;;15.56;57.45
22755;BME280;11544;42.020;23.094;2022-10-17T08:45:34;98646.06;;;15.29;54.57
22755;BME280;11544;42.020;23.094;2022-10-17T08:48:04;98646.59;;;15.94;54.20
22755;BME280;11544;42.020;23.094;2022-10-17T08:53:26;98643.88;;;15.70;56.18
22755;BME280;11544;42.020;23.094;2022-10-17T08:55:54;98642.19;;;16.44;53.65
22755;BME280;11544;42.020;23.094;2022-10-17T08:58:27;98639.16;;;16.06;54.87
22755;BME280;11544;42.020;23.094;2022-10-17T09:01:31;98648.22;;;16.23;53.95
22755;BME280;11544;42.020;23.094;2022-10-17T09:06:34;98632.19;;;16.29;53.77
22755;BME280;11544;42.020;23.094;2022-10-17T09:11:49;98630.50;;;16.51;54.24
22755;BME280;11544;42.020;23.094;2022-10-17T09:14:48;98628.03;;;16.23;53.65
22755;BME280;11544;42.020;23.094;2022-10-17T09:20:04;98627.00;;;16.98;52.90
22755;BME280;11544;42.020;23.094;2022-10-17T09:22:43;98631.72;;;16.66;51.79
22755;BME280;11544;42.020;23.094;2022-10-17T09:25:14;98624.03;;;16.84;51.63
22755;BME280;11544;42.020;23.094;2022-10-17T09:27:43;98625.09;;;16.06;51.61
22755;BME280;11544;42.020;23.094;2022-10-17T09:30:33;98614.06;;;16.21;52.94
22755;BME280;11544;42.020;23.094;2022-10-17T09:33:00;98625.09;;;16.80;51.17
22755;BME280;11544;42.020;23.094;2022-10-17T09:35:27;98611.69;;;16.86;51.32
22755;BME280;11544;42.020;23.094;2022-10-17T09:37:54;98606.81;;;16.75;51.51
22755;BME280;11544;42.020;23.094;2022-10-17T09:40:25;98608.34;;;17.04;50.13
22755;BME280;11544;42.020;23.094;2022-10-17T09:42:53;98614.88;;;16.70;51.47
22755;BME280;11544;42.020;23.094;2022-10-17T09:45:21;98601.66;;;17.18;50.39
22755;BME280;11544;42.020;23.094;2022-10-17T09:47:59;98593.56;;;16.77;51.29
22755;BME280;11544;42.020;23.094;2022-10-17T09:50:32;98594.97;;;17.09;49.92
22755;BME280;11544;42.020;23.094;2022-10-17T09:53:11;98588.78;;;17.32;48.51
22755;BME280;11544;42.020;23.094;2022-10-17T09:55:42;98590.75;;;17.69;49.94
22755;BME280;11544;42.020;23.094;2022-10-17T09:58:10;98589.50;;;17.78;49.13
22755;BME280;11544;42.020;23.094;2022-10-17T10:00:47;98581.44;;;17.61;49.81
22755;BME280;11544;42.020;23.094;2022-10-17T10:03:20;98570.00;;;18.61;47.64
22755;BME280;11544;42.020;23.094;2022-10-17T10:06:13;98576.00;;;17.86;47.17
22755;BME280;11544;42.020;23.094;2022-10-17T10:08:54;98565.94;;;17.73;48.48
22755;BME280;11544;42.020;23.094;2022-10-17T10:12:05;98566.03;;;17.92;46.88
22755;BME280;11544;42.020;23.094;2022-10-17T10:16:53;98563.25;;;18.35;46.40
22755;BME280;11544;42.020;23.094;2022-10-17T10:21:55;98551.75;;;17.98;46.09
22755;BME280;11544;42.020;23.094;2022-10-17T10:24:21;98547.19;;;18.20;44.73
22755;BME280;11544;42.020;23.094;2022-10-17T10:26:49;98533.88;;;17.84;44.84
22755;BME280;11544;42.020;23.094;2022-10-17T10:29:31;98538.06;;;18.09;44.54
22755;BME280;11544;42.020;23.094;2022-10-17T10:34:49;98531.88;;;18.67;44.31
22755;BME280;11544;42.020;23.094;2022-10-17T10:37:22;98538.28;;;18.42;44.59
22755;BME280;11544;42.020;23.094;2022-10-17T10:39:54;98519.75;;;18.44;45.75
22755;BME280;11544;42.020;23.094;2022-10-17T10:44:48;98520.88;;;18.95;45.10
22755;BME280;11544;42.020;23.094;2022-10-17T10:47:22;98517.75;;;18.68;44.94
22755;BME280;11544;42.020;23.094;2022-10-17T10:50:16;98517.28;;;18.78;44.91
22755;BME280;11544;42.020;23.094;2022-10-17T10:52:46;98508.25;;;19.19;42.83
22755;BME280;11544;42.020;23.094;2022-10-17T10:55:20;98510.38;;;18.74;43.91
22755;BME280;11544;42.020;23.094;2022-10-17T10:57:48;98498.19;;;18.91;42.09
22755;BME280;11544;42.020;23.094;2022-10-17T11:00:18;98502.47;;;18.93;41.59
22755;BME280;11544;42.020;23.094;2022-10-17T11:03:10;98493.06;;;19.22;40.42
22755;BME280;11544;42.020;23.094;2022-10-17T11:05:49;98489.72;;;19.01;39.85
22755;BME280;11544;42.020;23.094;2022-10-17T11:08:27;98493.63;;;19.12;39.59
22755;BME280;11544;42.020;23.094;2022-10-17T11:11:31;98485.84;;;19.26;38.25
22755;BME280;11544;42.020;23.094;2022-10-17T11:16:41;98477.44;;;19.00;38.36
22755;BME280;11544;42.020;23.094;2022-10-17T11:22:27;98463.50;;;19.66;37.32
22755;BME280;11544;42.020;23.094;2022-10-17T11:25:32;98470.72;;;19.63;38.06
22755;BME280;11544;42.020;23.094;2022-10-17T11:27:58;98460.94;;;19.65;36.68
22755;BME280;11544;42.020;23.094;2022-10-17T11:30:27;98456.66;;;19.62;36.15
22755;BME280;11544;42.020;23.094;2022-10-17T11:32:58;98444.13;;;19.83;36.61
22755;BME280;11544;42.020;23.094;2022-10-17T11:35:28;98443.03;;;19.87;37.38
22755;BME280;11544;42.020;23.094;2022-10-17T11:38:11;98446.81;;;19.99;36.77
22755;BME280;11544;42.020;23.094;2022-10-17T11:40:45;98436.81;;;20.04;36.54
22755;BME280;11544;42.020;23.094;2022-10-17T11:45:46;98435.53;;;19.45;34.54
22755;BME280;11544;42.020;23.094;2022-10-17T11:48:21;98438.59;;;19.37;35.58
22755;BME280;11544;42.020;23.094;2022-10-17T11:51:12;98431.91;;;19.81;34.72
22755;BME280;11544;42.020;23.094;2022-10-17T11:56:10;98425.47;;;20.18;33.69
22755;BME280;11544;42.020;23.094;2022-10-17T11:58:49;98418.81;;;20.27;32.95
22755;BME280;11544;42.020;23.094;2022-10-17T12:07:07;98418.22;;;20.06;33.93
22755;BME280;11544;42.020;23.094;2022-10-17T12:10:06;98417.47;;;20.20;32.39
22755;BME280;11544;42.020;23.094;2022-10-17T12:12:41;98414.53;;;20.08;32.63
22755;BME280;11544;42.020;23.094;2022-10-17T12:17:37;98421.53;;;20.09;33.38
22755;BME280;11544;42.020;23.094;2022-10-17T12:23:00;98416.16;;;20.11;33.21
22755;BME280;11544;42.020;23.094;2022-10-17T12:25:31;98421.94;;;19.86;32.71
22755;BME280;11544;42.020;23.094;2022-10-17T12:28:10;98411.03;;;20.24;31.71
22755;BME280;11544;42.020;23.094;2022-10-17T12:30:50;98409.28;;;19.75;32.08
22755;BME280;11544;42.020;23.094;2022-10-17T12:33:36;98404.38;;;20.17;33.30
22755;BME280;11544;42.020;23.094;2022-10-17T12:52:12;98388.50;;;20.01;31.74
22755;BME280;11544;42.020;23.094;2022-10-17T12:54:45;98391.56;;;20.09;31.25
22755;BME280;11544;42.020;23.094;2022-10-17T12:59:45;98375.78;;;19.92;31.62
22755;BME280;11544;42.020;23.094;2022-10-17T13:02:18;98378.41;;;20.07;32.56
22755;BME280;11544;42.020;23.094;2022-10-17T13:04:46;98376.50;;;19.94;32.50
22755;BME280;11544;42.020;23.094;2022-10-17T13:07:20;98370.22;;;20.12;32.93
22755;BME280;11544;42.020;23.094;2022-10-17T13:09:47;98376.63;;;20.24;32.56
22755;BME280;11544;42.020;23.094;2022-10-17T13:12:19;98371.94;;;20.13;32.59
22755;BME280;11544;42.020;23.094;2022-10-17T13:14:49;98369.09;;;20.16;31.95
22755;BME280;11544;42.020;23.094;2022-10-17T13:17:29;98369.00;;;20.34;31.41
22755;BME280;11544;42.020;23.094;2022-10-17T13:19:56;98366.97;;;20.39;30.20
22755;BME280;11544;42.020;23.094;2022-10-17T13:22:24;98365.00;;;20.26;31.29
22755;BME280;11544;42.020;23.094;2022-10-17T13:24:52;98364.59;;;20.34;30.50
22755;BME280;11544;42.020;23.094;2022-10-17T13:27:27;98364.13;;;20.42;31.06
22755;BME280;11544;42.020;23.094;2022-10-17T13:29:55;98358.94;;;20.24;31.28
22755;BME280;11544;42.020;23.094;2022-10-17T13:32:22;98351.69;;;20.28;31.40
22755;BME280;11544;42.020;23.094;2022-10-17T13:35:09;98355.69;;;20.19;32.32
22755;BME280;11544;42.020;23.094;2022-10-17T13:37:36;98352.72;;;20.09;32.79
22755;BME280;11544;42.020;23.094;2022-10-17T13:40:04;98352.38;;;20.16;32.08
22755;BME280;11544;42.020;23.094;2022-10-17T13:42:36;98354.59;;;20.07;30.64
22755;BME280;11544;42.020;23.094;2022-10-17T13:45:02;98353.41;;;20.13;29.95
22755;BME280;11544;42.020;23.094;2022-10-17T13:47:33;98351.41;;;20.17;29.83
22755;BME280;11544;42.020;23.094;2022-10-17T13:50:02;98360.41;;;20.14;29.35
22755;BME280;11544;42.020;23.094;2022-10-17T13:52:29;98360.00;;;20.06;30.98
22755;BME280;11544;42.020;23.094;2022-10-17T13:55:05;98355.53;;;20.06;29.93
22755;BME280;11544;42.020;23.094;2022-10-17T13:57:31;98359.72;;;20.11;30.40
22755;BME280;11544;42.020;23.094;2022-10-17T14:00:00;98369.88;;;20.02;30.03
22755;BME280;11544;42.020;23.094;2022-10-17T14:02:28;98365.78;;;19.97;30.96
22755;BME280;11544;42.020;23.094;2022-10-17T14:05:10;98357.25;;;19.92;31.44
22755;BME280;11544;42.020;23.094;2022-10-17T14:10:25;98364.31;;;19.75;30.57
22755;BME280;11544;42.020;23.094;2022-10-17T14:12:52;98373.38;;;19.87;28.93
22755;BME280;11544;42.020;23.094;2022-10-17T14:15:18;98369.72;;;19.90;30.03
22755;BME280;11544;42.020;23.094;2022-10-17T14:17:53;98372.09;;;19.78;30.79
22755;BME280;11544;42.020;23.094;2022-10-17T14:20:21;98375.69;;;19.77;28.87
22755;BME280;11544;42.020;23.094;2022-10-17T14:22:48;98382.59;;;19.62;29.28
22755;BME280;11544;42.020;23.094;2022-10-17T14:25:34;98372.97;;;19.61;29.33
22755;BME280;11544;42.020;23.094;2022-10-17T14:30:36;98373.75;;;19.63;28.83
22755;BME280;11544;42.020;23.094;2022-10-17T14:33:13;98375.50;;;19.63;28.68
22755;BME280;11544;42.020;23.094;2022-10-17T14:35:48;98385.59;;;19.56;29.85
22755;BME280;11544;42.020;23.094;2022-10-17T14:38:15;98388.09;;;19.42;29.13
22755;BME280;11544;42.020;23.094;2022-10-17T14:40:52;98382.41;;;19.50;28.11
22755;BME280;11544;42.020;23.094;2022-10-17T14:43:21;98374.72;;;19.45;27.64
22755;BME280;11544;42.020;23.094;2022-10-17T14:45:47;98382.56;;;19.46;27.98
22755;BME280;11544;42.020;23.094;2022-10-17T14:48:16;98381.81;;;19.60;26.93
22755;BME280;11544;42.020;23.094;2022-10-17T14:51:09;98392.16;;;19.32;28.23
22755;BME280;11544;42.020;23.094;2022-10-17T14:53:36;98391.72;;;19.23;27.72
22755;BME280;11544;42.020;23.094;2022-10-17T14:56:17;98396.53;;;19.15;27.83